Terminal Aerodrome Forecast
Issued by NWS

Home | Current Version | Previous Version | Graphics & Text | Print | Product List | Glossary On
Versions: 1 2 3 4 5 6 7 8 9 10 11 12 13
000
FTUS45 KGGW 241136
TAFSDY
TAF
KSDY 241136Z 2412/2512 VRB03KT 6SM BR FEW005
     FM241300 00000KT P6SM FEW070
     FM250300 14012KT P6SM SCT130
     FM250800 15011KT P6SM SCT170 WS020/18040KT
     FM251000 16010KT P6SM SCT050=

USA.gov is the U.S. government's official web portal to all federal, state and local government web resources and services.